sensor_id;sensor_type;location;lat;lon;timestamp;pressure;altitude;pressure_sealevel;temperature;humidity
11268;BME280;49397;47.474;9.416;2022-11-20T00:00:03;94990.28;;;6.16;85.56
11268;BME280;49397;47.474;9.416;2022-11-20T00:02:29;95001.28;;;6.20;84.30
11268;BME280;49397;47.474;9.416;2022-11-20T00:04:54;94995.91;;;6.20;85.62
11268;BME280;49397;47.474;9.416;2022-11-20T00:07:20;94999.09;;;6.22;85.59
11268;BME280;49397;47.474;9.416;2022-11-20T00:09:45;94983.38;;;6.10;86.12
11268;BME280;49397;47.474;9.416;2022-11-20T00:12:11;94998.06;;;6.18;86.61
11268;BME280;49397;47.474;9.416;2022-11-20T00:14:36;94995.19;;;6.14;85.63
11268;BME280;49397;47.474;9.416;2022-11-20T00:17:02;94993.69;;;6.08;85.87
11268;BME280;49397;47.474;9.416;2022-11-20T00:19:27;94999.78;;;6.14;84.47
11268;BME280;49397;47.474;9.416;2022-11-20T00:21:53;94991.06;;;6.03;84.71
11268;BME280;49397;47.474;9.416;2022-11-20T00:24:20;95003.63;;;6.08;85.01
11268;BME280;49397;47.474;9.416;2022-11-20T00:26:46;95005.53;;;6.07;84.83
11268;BME280;49397;47.474;9.416;2022-11-20T00:29:12;95009.38;;;6.01;84.87
11268;BME280;49397;47.474;9.416;2022-11-20T00:31:37;95008.88;;;5.99;84.29
11268;BME280;49397;47.474;9.416;2022-11-20T00:34:03;95013.03;;;5.92;84.73
11268;BME280;49397;47.474;9.416;2022-11-20T00:36:31;95015.22;;;5.90;84.78
11268;BME280;49397;47.474;9.416;2022-11-20T00:38:58;95014.63;;;5.93;84.91
11268;BME280;49397;47.474;9.416;2022-11-20T00:41:25;95024.63;;;5.92;83.71
11268;BME280;49397;47.474;9.416;2022-11-20T00:43:53;95018.47;;;5.87;84.18
11268;BME280;49397;47.474;9.416;2022-11-20T00:46:24;95017.66;;;5.86;84.52
11268;BME280;49397;47.474;9.416;2022-11-20T00:48:50;95023.63;;;5.83;83.72
11268;BME280;49397;47.474;9.416;2022-11-20T00:51:21;95025.81;;;5.81;84.15
11268;BME280;49397;47.474;9.416;2022-11-20T00:53:46;95002.59;;;5.67;84.70
11268;BME280;49397;47.474;9.416;2022-11-20T00:56:14;95008.56;;;5.64;84.19
11268;BME280;49397;47.474;9.416;2022-11-20T00:58:42;95025.88;;;5.76;84.75
11268;BME280;49397;47.474;9.416;2022-11-20T01:01:09;95036.41;;;5.73;84.39
11268;BME280;49397;47.474;9.416;2022-11-20T01:03:37;95032.06;;;5.77;85.01
11268;BME280;49397;47.474;9.416;2022-11-20T01:06:09;95034.53;;;5.73;85.37
11268;BME280;49397;47.474;9.416;2022-11-20T01:08:36;95023.25;;;5.71;85.40
11268;BME280;49397;47.474;9.416;2022-11-20T01:11:04;95038.47;;;5.81;84.79
11268;BME280;49397;47.474;9.416;2022-11-20T01:13:30;95035.25;;;5.79;85.51
11268;BME280;49397;47.474;9.416;2022-11-20T01:16:26;95037.47;;;5.77;84.43
11268;BME280;49397;47.474;9.416;2022-11-20T01:18:54;95042.47;;;5.83;84.89
11268;BME280;49397;47.474;9.416;2022-11-20T01:21:23;95047.09;;;5.83;85.93
11268;BME280;49397;47.474;9.416;2022-11-20T01:23:50;95049.50;;;5.84;85.65
11268;BME280;49397;47.474;9.416;2022-11-20T01:26:19;95055.66;;;5.85;86.10
11268;BME280;49397;47.474;9.416;2022-11-20T01:28:45;95050.28;;;5.85;86.33
11268;BME280;49397;47.474;9.416;2022-11-20T01:33:51;95050.50;;;5.88;85.44
11268;BME280;49397;47.474;9.416;2022-11-20T01:36:19;95044.88;;;5.85;85.10
11268;BME280;49397;47.474;9.416;2022-11-20T01:38:46;95050.78;;;5.87;85.74
11268;BME280;49397;47.474;9.416;2022-11-20T01:41:14;95046.72;;;5.89;84.84
11268;BME280;49397;47.474;9.416;2022-11-20T01:44:00;95040.53;;;5.89;84.00
11268;BME280;49397;47.474;9.416;2022-11-20T01:46:26;95042.13;;;5.90;84.42
11268;BME280;49397;47.474;9.416;2022-11-20T01:49:30;95047.81;;;5.88;84.47
11268;BME280;49397;47.474;9.416;2022-11-20T01:52:02;95047.22;;;5.91;83.87
11268;BME280;49397;47.474;9.416;2022-11-20T01:54:37;95044.53;;;5.91;83.21
11268;BME280;49397;47.474;9.416;2022-11-20T01:57:05;95038.38;;;5.91;84.08
11268;BME280;49397;47.474;9.416;2022-11-20T01:59:35;95040.31;;;5.85;84.11
11268;BME280;49397;47.474;9.416;2022-11-20T02:02:04;95032.84;;;5.77;84.05
11268;BME280;49397;47.474;9.416;2022-11-20T02:04:30;95040.16;;;5.77;84.77
11268;BME280;49397;47.474;9.416;2022-11-20T02:07:00;95044.66;;;5.81;84.04
11268;BME280;49397;47.474;9.416;2022-11-20T02:09:26;95045.78;;;5.75;83.96
11268;BME280;49397;47.474;9.416;2022-11-20T02:11:53;95035.97;;;5.66;84.67
11268;BME280;49397;47.474;9.416;2022-11-20T02:14:19;95028.69;;;5.66;83.84
11268;BME280;49397;47.474;9.416;2022-11-20T02:16:47;95042.09;;;5.71;83.00
11268;BME280;49397;47.474;9.416;2022-11-20T02:19:31;95036.47;;;5.68;83.82
11268;BME280;49397;47.474;9.416;2022-11-20T02:24:37;95051.25;;;5.70;83.37
11268;BME280;49397;47.474;9.416;2022-11-20T02:27:07;95050.22;;;5.66;84.42
11268;BME280;49397;47.474;9.416;2022-11-20T02:29:38;95057.06;;;5.59;85.04
11268;BME280;49397;47.474;9.416;2022-11-20T02:32:04;95046.00;;;5.60;85.28
11268;BME280;49397;47.474;9.416;2022-11-20T02:34:30;95053.97;;;5.70;84.40
11268;BME280;49397;47.474;9.416;2022-11-20T02:36:56;95041.22;;;5.57;85.20
11268;BME280;49397;47.474;9.416;2022-11-20T02:39:25;95063.81;;;5.56;85.85
11268;BME280;49397;47.474;9.416;2022-11-20T02:41:53;95055.75;;;5.56;86.11
11268;BME280;49397;47.474;9.416;2022-11-20T02:44:20;95060.63;;;5.54;85.98
11268;BME280;49397;47.474;9.416;2022-11-20T02:46:46;95059.00;;;5.53;86.91
11268;BME280;49397;47.474;9.416;2022-11-20T02:49:11;95058.50;;;5.51;87.62
11268;BME280;49397;47.474;9.416;2022-11-20T02:51:37;95052.09;;;5.47;87.58
11268;BME280;49397;47.474;9.416;2022-11-20T02:54:02;95057.41;;;5.52;86.38
11268;BME280;49397;47.474;9.416;2022-11-20T02:56:28;95048.81;;;5.50;85.29
11268;BME280;49397;47.474;9.416;2022-11-20T02:58:54;95058.44;;;5.56;85.56
11268;BME280;49397;47.474;9.416;2022-11-20T03:01:19;95061.13;;;5.56;85.35
11268;BME280;49397;47.474;9.416;2022-11-20T03:03:45;95062.66;;;5.62;85.02
11268;BME280;49397;47.474;9.416;2022-11-20T03:06:11;95046.94;;;5.51;85.04
11268;BME280;49397;47.474;9.416;2022-11-20T03:08:36;95062.22;;;5.55;85.04
11268;BME280;49397;47.474;9.416;2022-11-20T03:11:03;95062.72;;;5.57;85.24
11268;BME280;49397;47.474;9.416;2022-11-20T03:13:30;95063.81;;;5.56;85.00
11268;BME280;49397;47.474;9.416;2022-11-20T03:15:55;95062.22;;;5.55;84.73
11268;BME280;49397;47.474;9.416;2022-11-20T03:18:21;95066.78;;;5.55;84.46
11268;BME280;49397;47.474;9.416;2022-11-20T03:20:46;95070.75;;;5.62;84.37
11268;BME280;49397;47.474;9.416;2022-11-20T03:23:12;95061.06;;;5.61;84.40
11268;BME280;49397;47.474;9.416;2022-11-20T03:25:37;95065.34;;;5.62;84.25
11268;BME280;49397;47.474;9.416;2022-11-20T03:28:03;95054.13;;;5.55;84.19
11268;BME280;49397;47.474;9.416;2022-11-20T03:30:28;95054.59;;;5.62;84.65
11268;BME280;49397;47.474;9.416;2022-11-20T03:32:54;95058.06;;;5.63;84.27
11268;BME280;49397;47.474;9.416;2022-11-20T03:35:19;95065.31;;;5.67;82.93
11268;BME280;49397;47.474;9.416;2022-11-20T03:37:45;95063.69;;;5.66;83.32
11268;BME280;49397;47.474;9.416;2022-11-20T03:40:11;95064.25;;;5.63;83.36
11268;BME280;49397;47.474;9.416;2022-11-20T03:42:36;95070.22;;;5.60;82.55
11268;BME280;49397;47.474;9.416;2022-11-20T03:45:12;95073.16;;;5.64;82.40
11268;BME280;49397;47.474;9.416;2022-11-20T03:47:38;95077.00;;;5.58;82.76
11268;BME280;49397;47.474;9.416;2022-11-20T03:50:04;95062.56;;;5.49;82.55
11268;BME280;49397;47.474;9.416;2022-11-20T03:52:30;95074.06;;;5.54;82.56
11268;BME280;49397;47.474;9.416;2022-11-20T03:54:55;95058.84;;;5.45;82.63
11268;BME280;49397;47.474;9.416;2022-11-20T03:57:22;95071.38;;;5.54;82.68
11268;BME280;49397;47.474;9.416;2022-11-20T03:59:47;95068.50;;;5.46;83.29
11268;BME280;49397;47.474;9.416;2022-11-20T04:02:13;95067.16;;;5.48;82.75
11268;BME280;49397;47.474;9.416;2022-11-20T04:04:38;95065.59;;;5.42;83.15
11268;BME280;49397;47.474;9.416;2022-11-20T04:07:04;95056.03;;;5.31;82.01
11268;BME280;49397;47.474;9.416;2022-11-20T04:09:29;95054.41;;;5.35;81.27
11268;BME280;49397;47.474;9.416;2022-11-20T04:11:55;95070.19;;;5.42;81.68
11268;BME280;49397;47.474;9.416;2022-11-20T04:14:20;95055.31;;;5.26;82.17
11268;BME280;49397;47.474;9.416;2022-11-20T04:16:45;95057.19;;;5.25;81.60
11268;BME280;49397;47.474;9.416;2022-11-20T04:19:13;95067.94;;;5.25;82.30
11268;BME280;49397;47.474;9.416;2022-11-20T04:21:40;95059.59;;;5.27;80.89
11268;BME280;49397;47.474;9.416;2022-11-20T04:24:07;95060.16;;;5.24;81.83
11268;BME280;49397;47.474;9.416;2022-11-20T04:26:33;95055.69;;;5.14;82.28
11268;BME280;49397;47.474;9.416;2022-11-20T04:28:59;95058.91;;;5.16;82.82
11268;BME280;49397;47.474;9.416;2022-11-20T04:31:28;95069.09;;;5.19;82.24
11268;BME280;49397;47.474;9.416;2022-11-20T04:33:55;95069.66;;;5.16;81.93
11268;BME280;49397;47.474;9.416;2022-11-20T04:36:22;95061.88;;;5.15;82.31
11268;BME280;49397;47.474;9.416;2022-11-20T04:38:55;95067.25;;;5.15;81.45
11268;BME280;49397;47.474;9.416;2022-11-20T04:41:22;95065.72;;;5.09;82.03
11268;BME280;49397;47.474;9.416;2022-11-20T04:43:51;95074.28;;;5.11;80.72
11268;BME280;49397;47.474;9.416;2022-11-20T04:46:18;95068.41;;;5.09;81.59
11268;BME280;49397;47.474;9.416;2022-11-20T04:48:44;95067.31;;;5.10;81.56
11268;BME280;49397;47.474;9.416;2022-11-20T04:51:09;95071.59;;;5.11;81.03
11268;BME280;49397;47.474;9.416;2022-11-20T04:53:35;95070.28;;;5.08;81.27
11268;BME280;49397;47.474;9.416;2022-11-20T04:56:06;95077.78;;;5.11;81.13
11268;BME280;49397;47.474;9.416;2022-11-20T04:58:32;95068.69;;;5.07;81.45
11268;BME280;49397;47.474;9.416;2022-11-20T05:01:18;95069.75;;;5.06;80.67
11268;BME280;49397;47.474;9.416;2022-11-20T05:03:45;95067.59;;;5.08;80.48
11268;BME280;49397;47.474;9.416;2022-11-20T05:06:13;95068.84;;;5.16;80.68
11268;BME280;49397;47.474;9.416;2022-11-20T05:08:39;95070.53;;;5.12;80.95
11268;BME280;49397;47.474;9.416;2022-11-20T05:13:32;95075.03;;;5.16;80.25
11268;BME280;49397;47.474;9.416;2022-11-20T05:16:02;95070.69;;;5.20;79.85
11268;BME280;49397;47.474;9.416;2022-11-20T05:18:28;95070.41;;;5.22;79.88
11268;BME280;49397;47.474;9.416;2022-11-20T05:20:55;95079.50;;;5.26;79.53
11268;BME280;49397;47.474;9.416;2022-11-20T05:23:21;95083.84;;;5.22;79.83
11268;BME280;49397;47.474;9.416;2022-11-20T05:25:47;95091.63;;;5.23;80.44
11268;BME280;49397;47.474;9.416;2022-11-20T05:28:12;95083.56;;;5.23;80.15
11268;BME280;49397;47.474;9.416;2022-11-20T05:30:37;95085.75;;;5.21;80.46
11268;BME280;49397;47.474;9.416;2022-11-20T05:33:03;95093.00;;;5.21;80.74
11268;BME280;49397;47.474;9.416;2022-11-20T05:35:28;95088.78;;;5.15;81.42
11268;BME280;49397;47.474;9.416;2022-11-20T05:37:54;95085.81;;;5.16;81.32
11268;BME280;49397;47.474;9.416;2022-11-20T05:40:19;95087.91;;;5.19;81.04
11268;BME280;49397;47.474;9.416;2022-11-20T05:42:45;95087.63;;;5.21;80.97
11268;BME280;49397;47.474;9.416;2022-11-20T05:45:10;95086.91;;;5.15;81.89
11268;BME280;49397;47.474;9.416;2022-11-20T05:47:36;95081.44;;;5.20;81.68
11268;BME280;49397;47.474;9.416;2022-11-20T05:50:01;95079.84;;;5.19;81.47
11268;BME280;49397;47.474;9.416;2022-11-20T05:52:30;95076.06;;;5.20;81.51
11268;BME280;49397;47.474;9.416;2022-11-20T05:54:56;95066.97;;;5.16;81.79
11268;BME280;49397;47.474;9.416;2022-11-20T05:57:21;95092.38;;;5.29;81.84
11268;BME280;49397;47.474;9.416;2022-11-20T05:59:47;95093.25;;;5.24;81.76
11268;BME280;49397;47.474;9.416;2022-11-20T06:02:12;95090.56;;;5.24;81.61
11268;BME280;49397;47.474;9.416;2022-11-20T06:04:38;95086.53;;;5.22;81.96
11268;BME280;49397;47.474;9.416;2022-11-20T06:07:05;95084.66;;;5.22;82.03
11268;BME280;49397;47.474;9.416;2022-11-20T06:09:30;95095.06;;;5.29;81.52
11268;BME280;49397;47.474;9.416;2022-11-20T06:11:56;95095.88;;;5.29;81.48
11268;BME280;49397;47.474;9.416;2022-11-20T06:14:21;95084.56;;;5.32;80.99
11268;BME280;49397;47.474;9.416;2022-11-20T06:16:47;95094.78;;;5.30;81.19
11268;BME280;49397;47.474;9.416;2022-11-20T06:19:12;95101.25;;;5.29;81.33
11268;BME280;49397;47.474;9.416;2022-11-20T06:21:38;95096.94;;;5.28;81.24
11268;BME280;49397;47.474;9.416;2022-11-20T06:24:04;95101.47;;;5.33;81.31
11268;BME280;49397;47.474;9.416;2022-11-20T06:26:30;95099.06;;;5.31;80.91
11268;BME280;49397;47.474;9.416;2022-11-20T06:28:55;95099.16;;;5.26;81.27
11268;BME280;49397;47.474;9.416;2022-11-20T06:31:24;95094.78;;;5.30;80.83
11268;BME280;49397;47.474;9.416;2022-11-20T06:33:51;95096.94;;;5.28;81.44
11268;BME280;49397;47.474;9.416;2022-11-20T06:36:19;95099.06;;;5.31;81.06
11268;BME280;49397;47.474;9.416;2022-11-20T06:38:45;95098.88;;;5.28;81.05
11268;BME280;49397;47.474;9.416;2022-11-20T06:41:13;95097.81;;;5.24;81.00
11268;BME280;49397;47.474;9.416;2022-11-20T06:43:39;95091.69;;;5.18;81.05
11268;BME280;49397;47.474;9.416;2022-11-20T06:46:04;95102.13;;;5.25;81.58
11268;BME280;49397;47.474;9.416;2022-11-20T06:48:30;95103.19;;;5.24;81.57
11268;BME280;49397;47.474;9.416;2022-11-20T06:50:56;95101.94;;;5.16;82.08
11268;BME280;49397;47.474;9.416;2022-11-20T06:53:22;95103.75;;;5.21;81.71
11268;BME280;49397;47.474;9.416;2022-11-20T06:55:49;95103.47;;;5.22;81.64
11268;BME280;49397;47.474;9.416;2022-11-20T06:58:16;95109.81;;;5.31;81.01
11268;BME280;49397;47.474;9.416;2022-11-20T07:00:42;95106.56;;;5.34;80.73
11268;BME280;49397;47.474;9.416;2022-11-20T07:03:09;95106.50;;;5.39;80.02
11268;BME280;49397;47.474;9.416;2022-11-20T07:05:36;95116.34;;;5.49;78.94
11268;BME280;49397;47.474;9.416;2022-11-20T07:08:02;95118.41;;;5.57;79.00
11268;BME280;49397;47.474;9.416;2022-11-20T07:10:28;95120.09;;;5.53;79.15
11268;BME280;49397;47.474;9.416;2022-11-20T07:12:53;95120.03;;;5.58;79.25
11268;BME280;49397;47.474;9.416;2022-11-20T07:15:20;95130.44;;;5.64;78.82
11268;BME280;49397;47.474;9.416;2022-11-20T07:17:46;95122.22;;;5.56;79.99
11268;BME280;49397;47.474;9.416;2022-11-20T07:20:12;95132.69;;;5.57;79.92
11268;BME280;49397;47.474;9.416;2022-11-20T07:22:38;95131.09;;;5.56;79.97
11268;BME280;49397;47.474;9.416;2022-11-20T07:25:04;95121.91;;;5.57;78.70
11268;BME280;49397;47.474;9.416;2022-11-20T07:27:30;95131.47;;;5.68;78.96
11268;BME280;49397;47.474;9.416;2022-11-20T07:29:56;95130.72;;;5.63;78.21
11268;BME280;49397;47.474;9.416;2022-11-20T07:32:21;95130.72;;;5.63;78.49
11268;BME280;49397;47.474;9.416;2022-11-20T07:34:47;95138.69;;;5.73;78.11
11268;BME280;49397;47.474;9.416;2022-11-20T07:37:13;95139.72;;;5.77;78.41
11268;BME280;49397;47.474;9.416;2022-11-20T07:39:39;95142.63;;;5.80;78.69
11268;BME280;49397;47.474;9.416;2022-11-20T07:42:06;95150.16;;;5.83;78.17
11268;BME280;49397;47.474;9.416;2022-11-20T07:44:32;95139.38;;;5.83;78.37
11268;BME280;49397;47.474;9.416;2022-11-20T07:46:57;95147.41;;;5.88;78.60
11268;BME280;49397;47.474;9.416;2022-11-20T07:49:23;95143.56;;;5.94;78.87
11268;BME280;49397;47.474;9.416;2022-11-20T07:51:51;95136.16;;;6.05;79.04
11268;BME280;49397;47.474;9.416;2022-11-20T07:54:21;95131.28;;;6.07;78.14
11268;BME280;49397;47.474;9.416;2022-11-20T07:56:47;95128.22;;;6.13;77.25
11268;BME280;49397;47.474;9.416;2022-11-20T07:59:13;95141.41;;;6.15;77.07
11268;BME280;49397;47.474;9.416;2022-11-20T08:01:39;95129.69;;;6.25;77.58
11268;BME280;49397;47.474;9.416;2022-11-20T08:04:04;95136.09;;;6.29;76.06
11268;BME280;49397;47.474;9.416;2022-11-20T08:06:30;95126.19;;;6.43;77.28
11268;BME280;49397;47.474;9.416;2022-11-20T08:08:56;95130.69;;;6.66;74.81
11268;BME280;49397;47.474;9.416;2022-11-20T08:11:21;95134.41;;;6.70;74.68
11268;BME280;49397;47.474;9.416;2022-11-20T08:14:05;95136.00;;;6.71;74.78
11268;BME280;49397;47.474;9.416;2022-11-20T08:16:37;95126.56;;;6.55;75.53
11268;BME280;49397;47.474;9.416;2022-11-20T08:19:03;95138.78;;;6.66;75.44
11268;BME280;49397;47.474;9.416;2022-11-20T08:21:30;95123.16;;;6.49;76.00
11268;BME280;49397;47.474;9.416;2022-11-20T08:23:56;95124.81;;;6.64;75.57
11268;BME280;49397;47.474;9.416;2022-11-20T08:26:22;95124.63;;;6.92;74.25
11268;BME280;49397;47.474;9.416;2022-11-20T08:28:48;95125.25;;;7.03;73.00
11268;BME280;49397;47.474;9.416;2022-11-20T08:31:14;95129.47;;;7.22;73.19
11268;BME280;49397;47.474;9.416;2022-11-20T08:33:39;95131.09;;;7.23;72.29
11268;BME280;49397;47.474;9.416;2022-11-20T08:36:06;95137.75;;;7.12;72.03
11268;BME280;49397;47.474;9.416;2022-11-20T08:38:32;95132.06;;;7.14;72.18
11268;BME280;49397;47.474;9.416;2022-11-20T08:41:02;95127.88;;;7.21;71.43
11268;BME280;49397;47.474;9.416;2022-11-20T08:43:47;95126.59;;;7.19;70.53
11268;BME280;49397;47.474;9.416;2022-11-20T08:46:13;95131.97;;;7.19;70.15
11268;BME280;49397;47.474;9.416;2022-11-20T08:48:39;95130.88;;;7.20;69.98
11268;BME280;49397;47.474;9.416;2022-11-20T08:51:04;95131.59;;;7.25;69.97
11268;BME280;49397;47.474;9.416;2022-11-20T08:53:30;95125.00;;;7.31;70.39
11268;BME280;49397;47.474;9.416;2022-11-20T08:55:59;95144.59;;;7.37;69.52
11268;BME280;49397;47.474;9.416;2022-11-20T08:58:25;95133.03;;;7.36;68.22
11268;BME280;49397;47.474;9.416;2022-11-20T09:00:51;95137.31;;;7.37;68.39
11268;BME280;49397;47.474;9.416;2022-11-20T09:03:16;95131.00;;;7.28;68.23
11268;BME280;49397;47.474;9.416;2022-11-20T09:05:42;95140.84;;;7.06;69.62
11268;BME280;49397;47.474;9.416;2022-11-20T09:08:08;95142.84;;;7.14;69.90
11268;BME280;49397;47.474;9.416;2022-11-20T09:10:34;95127.94;;;7.03;70.31
11268;BME280;49397;47.474;9.416;2022-11-20T09:13:00;95122.19;;;6.91;70.12
11268;BME280;49397;47.474;9.416;2022-11-20T09:15:25;95132.28;;;7.17;71.08
11268;BME280;49397;47.474;9.416;2022-11-20T09:17:55;95146.34;;;7.60;68.66
11268;BME280;49397;47.474;9.416;2022-11-20T09:20:21;95131.72;;;7.74;67.87
11268;BME280;49397;47.474;9.416;2022-11-20T09:22:47;95143.44;;;7.70;68.26
11268;BME280;49397;47.474;9.416;2022-11-20T09:25:12;95132.44;;;7.80;66.76
11268;BME280;49397;47.474;9.416;2022-11-20T09:27:38;95138.13;;;7.92;67.44
11268;BME280;49397;47.474;9.416;2022-11-20T09:30:04;95137.50;;;8.22;66.13
11268;BME280;49397;47.474;9.416;2022-11-20T09:32:29;95134.81;;;8.36;65.08
11268;BME280;49397;47.474;9.416;2022-11-20T09:34:55;95129.25;;;8.54;64.48
11268;BME280;49397;47.474;9.416;2022-11-20T09:37:20;95131.53;;;8.61;64.58
11268;BME280;49397;47.474;9.416;2022-11-20T09:39:46;95112.13;;;8.23;65.05
11268;BME280;49397;47.474;9.416;2022-11-20T09:44:50;95126.34;;;7.88;65.56
11268;BME280;49397;47.474;9.416;2022-11-20T09:47:50;95127.22;;;7.70;66.02
11268;BME280;49397;47.474;9.416;2022-11-20T09:50:28;95131.13;;;7.64;65.67
11268;BME280;49397;47.474;9.416;2022-11-20T09:53:19;95128.44;;;7.91;64.82
11268;BME280;49397;47.474;9.416;2022-11-20T09:55:47;95119.59;;;8.40;63.69
11268;BME280;49397;47.474;9.416;2022-11-20T09:58:22;95129.97;;;8.82;63.04
11268;BME280;49397;47.474;9.416;2022-11-20T10:00:51;95123.03;;;8.89;62.04
11268;BME280;49397;47.474;9.416;2022-11-20T10:04:23;95131.19;;;8.98;62.31
11268;BME280;49397;47.474;9.416;2022-11-20T10:06:23;95122.03;;;9.07;60.51
11268;BME280;49397;47.474;9.416;2022-11-20T10:14:30;95129.31;;;8.41;62.54
11268;BME280;49397;47.474;9.416;2022-11-20T10:17:09;95134.91;;;8.17;63.27
11268;BME280;49397;47.474;9.416;2022-11-20T10:20:32;95129.13;;;8.10;64.04
11268;BME280;49397;47.474;9.416;2022-11-20T10:25:12;95119.31;;;8.01;63.12
11268;BME280;49397;47.474;9.416;2022-11-20T10:30:45;95111.53;;;7.99;63.03
11268;BME280;49397;47.474;9.416;2022-11-20T10:33:22;95109.94;;;7.85;63.28
11268;BME280;49397;47.474;9.416;2022-11-20T10:41:01;95110.13;;;7.88;64.21
11268;BME280;49397;47.474;9.416;2022-11-20T10:43:47;95119.34;;;7.87;63.69
11268;BME280;49397;47.474;9.416;2022-11-20T10:46:20;95115.75;;;7.92;64.42
11268;BME280;49397;47.474;9.416;2022-11-20T10:48:51;95110.72;;;8.26;61.77
11268;BME280;49397;47.474;9.416;2022-11-20T10:51:37;95107.34;;;8.78;60.86
11268;BME280;49397;47.474;9.416;2022-11-20T10:54:25;95112.78;;;9.31;59.06
11268;BME280;49397;47.474;9.416;2022-11-20T10:57:00;95116.41;;;9.57;59.18
11268;BME280;49397;47.474;9.416;2022-11-20T10:59:51;95107.91;;;9.41;57.44
11268;BME280;49397;47.474;9.416;2022-11-20T11:02:41;95106.47;;;9.13;59.34
11268;BME280;49397;47.474;9.416;2022-11-20T11:05:48;95102.66;;;9.75;58.56
11268;BME280;49397;47.474;9.416;2022-11-20T11:08:18;95105.69;;;9.43;57.15
11268;BME280;49397;47.474;9.416;2022-11-20T11:10:55;95096.88;;;9.68;57.50
11268;BME280;49397;47.474;9.416;2022-11-20T11:13:24;95106.97;;;9.15;57.51
11268;BME280;49397;47.474;9.416;2022-11-20T11:15:51;95090.81;;;8.79;58.30
11268;BME280;49397;47.474;9.416;2022-11-20T11:18:30;95100.81;;;8.57;58.59
11268;BME280;49397;47.474;9.416;2022-11-20T11:20:59;95087.34;;;8.87;58.33
11268;BME280;49397;47.474;9.416;2022-11-20T11:23:35;95085.53;;;9.66;57.68
11268;BME280;49397;47.474;9.416;2022-11-20T11:26:04;95085.69;;;9.61;57.79
11268;BME280;49397;47.474;9.416;2022-11-20T11:28:30;95085.66;;;9.22;59.26
11268;BME280;49397;47.474;9.416;2022-11-20T11:30:56;95087.06;;;9.42;59.08
11268;BME280;49397;47.474;9.416;2022-11-20T11:33:26;95082.38;;;9.34;57.18
11268;BME280;49397;47.474;9.416;2022-11-20T11:35:54;95076.53;;;9.40;56.12
11268;BME280;49397;47.474;9.416;2022-11-20T11:38:34;95075.56;;;9.05;58.32
11268;BME280;49397;47.474;9.416;2022-11-20T11:41:01;95089.22;;;8.56;58.27
11268;BME280;49397;47.474;9.416;2022-11-20T11:43:30;95069.66;;;8.24;59.98
11268;BME280;49397;47.474;9.416;2022-11-20T11:46:31;95069.06;;;8.13;60.84
11268;BME280;49397;47.474;9.416;2022-11-20T11:49:18;95070.69;;;8.28;60.38
11268;BME280;49397;47.474;9.416;2022-11-20T11:54:26;95053.69;;;8.14;60.32
11268;BME280;49397;47.474;9.416;2022-11-20T11:56:53;95058.47;;;8.03;60.94
11268;BME280;49397;47.474;9.416;2022-11-20T11:59:27;95057.41;;;8.04;61.17
11268;BME280;49397;47.474;9.416;2022-11-20T12:01:59;95064.66;;;8.17;62.10
11268;BME280;49397;47.474;9.416;2022-11-20T12:04:48;95062.69;;;8.23;60.55
11268;BME280;49397;47.474;9.416;2022-11-20T12:07:32;95058.88;;;8.10;60.44
11268;BME280;49397;47.474;9.416;2022-11-20T12:10:03;95062.09;;;8.12;60.17
11268;BME280;49397;47.474;9.416;2022-11-20T12:12:44;95065.81;;;8.03;60.04
11268;BME280;49397;47.474;9.416;2022-11-20T12:15:31;95056.19;;;8.10;60.27
11268;BME280;49397;47.474;9.416;2022-11-20T12:17:58;95042.88;;;8.14;60.33
11268;BME280;49397;47.474;9.416;2022-11-20T12:20:28;95059.69;;;8.11;60.47
11268;BME280;49397;47.474;9.416;2022-11-20T12:23:20;95055.25;;;8.15;61.14
11268;BME280;49397;47.474;9.416;2022-11-20T12:25:53;95051.03;;;8.36;60.23
11268;BME280;49397;47.474;9.416;2022-11-20T12:31:20;95034.13;;;8.74;60.55
11268;BME280;49397;47.474;9.416;2022-11-20T12:36:32;95032.00;;;8.63;57.62
11268;BME280;49397;47.474;9.416;2022-11-20T12:42:08;95027.16;;;9.04;59.49
11268;BME280;49397;47.474;9.416;2022-11-20T12:56:35;95007.16;;;8.61;58.53
11268;BME280;49397;47.474;9.416;2022-11-20T13:06:41;95012.94;;;8.24;57.76
11268;BME280;49397;47.474;9.416;2022-11-20T13:09:13;95012.81;;;8.29;57.49
11268;BME280;49397;47.474;9.416;2022-11-20T13:14:45;94991.13;;;8.64;58.80
11268;BME280;49397;47.474;9.416;2022-11-20T13:19:56;94990.44;;;8.59;57.49
11268;BME280;49397;47.474;9.416;2022-11-20T13:22:49;94981.81;;;8.79;58.06
11268;BME280;49397;47.474;9.416;2022-11-20T13:25:32;94972.44;;;8.76;57.66
11268;BME280;49397;47.474;9.416;2022-11-20T13:27:59;94976.41;;;9.09;58.15
11268;BME280;49397;47.474;9.416;2022-11-20T13:30:27;94968.72;;;9.03;57.00
11268;BME280;49397;47.474;9.416;2022-11-20T13:32:56;94958.16;;;8.84;55.37
11268;BME280;49397;47.474;9.416;2022-11-20T13:35:36;94965.50;;;8.92;55.92
11268;BME280;49397;47.474;9.416;2022-11-20T13:38:09;94957.16;;;8.80;56.73
11268;BME280;49397;47.474;9.416;2022-11-20T13:40:37;94957.19;;;9.19;56.94
11268;BME280;49397;47.474;9.416;2022-11-20T13:43:18;94955.50;;;9.49;55.04
11268;BME280;49397;47.474;9.416;2022-11-20T13:45:58;94954.84;;;9.35;54.59
11268;BME280;49397;47.474;9.416;2022-11-20T13:48:28;94938.47;;;9.40;54.69
11268;BME280;49397;47.474;9.416;2022-11-20T13:51:15;94945.28;;;9.38;53.61
11268;BME280;49397;47.474;9.416;2022-11-20T14:02:14;94924.56;;;8.85;55.21
11268;BME280;49397;47.474;9.416;2022-11-20T14:04:46;94947.78;;;9.17;55.21
11268;BME280;49397;47.474;9.416;2022-11-20T14:07:13;94938.25;;;9.28;55.05
11268;BME280;49397;47.474;9.416;2022-11-20T14:09:49;94943.66;;;9.19;54.78
11268;BME280;49397;47.474;9.416;2022-11-20T14:12:18;94941.41;;;9.13;55.50
11268;BME280;49397;47.474;9.416;2022-11-20T14:14:49;94942.75;;;8.93;54.49
11268;BME280;49397;47.474;9.416;2022-11-20T14:17:21;94940.72;;;8.99;55.51
11268;BME280;49397;47.474;9.416;2022-11-20T14:19:48;94939.59;;;9.00;55.39
11268;BME280;49397;47.474;9.416;2022-11-20T14:22:24;94941.94;;;9.32;55.16
11268;BME280;49397;47.474;9.416;2022-11-20T14:25:02;94941.16;;;9.40;55.73
11268;BME280;49397;47.474;9.416;2022-11-20T14:27:28;94943.53;;;9.25;54.93
11268;BME280;49397;47.474;9.416;2022-11-20T14:29:54;94941.53;;;9.08;54.82
11268;BME280;49397;47.474;9.416;2022-11-20T14:32:23;94940.72;;;9.07;55.09